Time;durP1;ratioP1;P1;durP2;ratioP2;P2;SDS_P1;SDS_P2;PMS_P1;PMS_P2;Temp;Humidity;BMP_temperature;BMP_pressure;BME280_temperature;BME280_humidity;BME280_pressure;Samples;Min_cycle;Max_cycle;Signal;HPM_P1;HPM_P2
2023/07/01 00:10:04;;;;;;;;;;;;;;;25.48;43.06;99575.25;41786213;28;19925;-81
2023/07/01 00:30:05;;;;;;;;;;;;;;;25.47;43.08;99568.28;41786158;28;19925;-80
2023/07/01 00:50:06;;;;;;;;;;;;;;;25.44;43.09;99564.16;41804800;28;19925;-81
2023/07/01 01:10:09;;;;;;;;;;;;;;;25.41;43.17;99545.94;41809078;28;19965;-80
2023/07/01 01:30:14;;;;;;;;;;;;;;;25.38;43.53;99528.53;41802748;28;19935;-82
2023/07/01 01:50:15;;;;;;;;;;;;;;;25.35;43.58;99526.22;41799432;28;21035;-80
2023/07/01 02:10:16;;;;;;;;;;;;;;;25.32;43.76;99528.38;41808232;28;21597;-82
2023/07/01 02:30:16;;;;;;;;;;;;;;;25.28;43.95;99530.53;41807266;28;20393;-80
2023/07/01 02:50:17;;;;;;;;;;;;;;;25.25;44.20;99515.78;41789086;28;19929;-80
2023/07/01 03:10:18;;;;;;;;;;;;;;;25.23;44.46;99528.38;41788186;28;19974;-80
2023/07/01 03:30:19;;;;;;;;;;;;;;;25.23;44.47;99533.66;41745519;28;20002;-81
2023/07/01 03:50:19;;;;;;;;;;;;;;;25.24;46.38;99515.94;41733886;28;19924;-83
2023/07/01 04:10:20;;;;;;;;;;;;;;;25.26;46.78;99516.59;41780331;28;19928;-80
2023/07/01 04:30:20;;;;;;;;;;;;;;;25.28;46.37;99505.84;41861590;28;19940;-79
2023/07/01 04:50:20;;;;;;;;;;;;;;;25.30;47.35;99502.00;41813319;28;19925;-81
2023/07/01 05:10:23;;;;;;;;;;;;;;;25.33;46.90;99511.44;41894533;28;19940;-80
2023/07/01 05:30:23;;;;;;;;;;;;;;;25.32;46.52;99500.03;41855803;28;19971;-81
2023/07/01 05:50:24;;;;;;;;;;;;;;;25.35;46.18;99520.06;41855941;28;20308;-80
2023/07/01 06:10:25;;;;;;;;;;;;;;;25.35;45.86;99518.25;41841138;28;19967;-81
2023/07/01 06:30:27;;;;;;;;;;;;;;;25.38;46.10;99517.13;41901526;28;19928;-79
2023/07/01 06:50:27;;;;;;;;;;;;;;;25.41;45.96;99514.13;41903531;28;19932;-81
2023/07/01 07:10:27;;;;;;;;;;;;;;;25.42;45.71;99510.47;41894792;28;19936;-81
2023/07/01 07:30:28;;;;;;;;;;;;;;;25.42;45.86;99492.75;41824420;28;19933;-81
2023/07/01 07:50:30;;;;;;;;;;;;;;;25.45;45.58;99478.34;41821367;28;20285;-78
2023/07/01 08:10:32;;;;;;;;;;;;;;;25.47;45.87;99463.09;41812116;28;19963;-81
2023/07/01 08:30:33;;;;;;;;;;;;;;;25.50;45.55;99451.31;41820129;28;19971;-81
2023/07/01 08:50:47;;;;;;;;;;;;;;;25.52;45.99;99431.63;41851528;28;19952;-82
2023/07/01 09:10:47;;;;;;;;;;;;;;;25.55;46.03;99433.91;41882186;28;19931;-80
2023/07/01 09:30:48;;;;;;;;;;;;;;;25.57;45.92;99423.97;41927385;28;19930;-80
2023/07/01 09:50:51;;;;;;;;;;;;;;;25.62;45.65;99414.69;41919502;28;19932;-79
2023/07/01 10:10:57;;;;;;;;;;;;;;;25.65;45.54;99390.50;41921943;28;20031;-80
2023/07/01 10:30:57;;;;;;;;;;;;;;;25.67;45.67;99376.06;41883987;28;19925;-79
2023/07/01 10:51:04;;;;;;;;;;;;;;;25.72;45.76;99367.59;41860005;28;19909;-81
2023/07/01 11:11:19;;;;;;;;;;;;;;;25.78;45.45;99371.34;41914653;28;19929;-80
2023/07/01 11:31:23;;;;;;;;;;;;;;;25.84;45.66;99373.31;41831005;28;19990;-81
2023/07/01 11:51:36;;;;;;;;;;;;;;;25.90;45.60;99351.38;41831682;28;19925;-79
2023/07/01 12:11:43;;;;;;;;;;;;;;;25.98;45.54;99329.31;41836013;28;19916;-80
2023/07/01 12:31:44;;;;;;;;;;;;;;;26.09;45.50;99318.31;41867648;28;19925;-80
2023/07/01 12:51:44;;;;;;;;;;;;;;;26.19;45.55;99288.88;41871620;28;20444;-81
2023/07/01 13:11:51;;;;;;;;;;;;;;;26.29;44.92;99264.75;41858890;28;19935;-79
2023/07/01 13:31:53;;;;;;;;;;;;;;;26.41;45.16;99258.00;41884426;28;19924;-81
2023/07/01 13:51:54;;;;;;;;;;;;;;;26.52;44.92;99252.25;41884659;28;19929;-82
2023/07/01 14:11:55;;;;;;;;;;;;;;;26.63;44.97;99250.16;41874556;28;19987;-79
2023/07/01 14:31:56;;;;;;;;;;;;;;;26.68;44.72;99245.97;41883020;28;19932;-81
2023/07/01 14:51:57;;;;;;;;;;;;;;;26.71;44.62;99225.34;41892303;28;19933;-82
2023/07/01 15:11:57;;;;;;;;;;;;;;;26.72;44.78;99227.81;41893649;28;19929;-77
2023/07/01 15:31:57;;;;;;;;;;;;;;;26.74;44.36;99217.81;41895996;28;20305;-82
2023/07/01 15:51:58;;;;;;;;;;;;;;;26.70;44.92;99213.91;41904286;28;20384;-82
2023/07/01 16:11:59;;;;;;;;;;;;;;;26.61;44.95;99226.44;41921333;28;20456;-82
2023/07/01 16:32:00;;;;;;;;;;;;;;;26.54;44.88;99228.19;41885724;28;19935;-81
2023/07/01 16:52:01;;;;;;;;;;;;;;;26.47;44.65;99229.91;41865549;28;19932;-81
2023/07/01 17:12:02;;;;;;;;;;;;;;;26.42;45.18;99232.31;41858956;28;20373;-82
2023/07/01 17:32:02;;;;;;;;;;;;;;;26.35;44.80;99233.03;41908995;28;19971;-81
2023/07/01 17:52:02;;;;;;;;;;;;;;;26.31;45.04;99244.19;41880701;28;19933;-82
2023/07/01 18:12:03;;;;;;;;;;;;;;;26.26;44.97;99257.97;41924700;28;20005;-82
2023/07/01 18:32:07;;;;;;;;;;;;;;;26.22;45.42;99259.34;41919979;28;19931;-81
2023/07/01 18:52:08;;;;;;;;;;;;;;;26.18;45.14;99268.66;41917473;28;20278;-82
2023/07/01 19:12:09;;;;;;;;;;;;;;;26.15;45.35;99309.63;41868605;28;19932;-80
2023/07/01 19:32:11;;;;;;;;;;;;;;;26.10;45.50;99324.44;41841107;28;20004;-81
2023/07/01 19:52:12;;;;;;;;;;;;;;;26.08;45.43;99324.63;41825256;28;19924;-80
2023/07/01 20:12:13;;;;;;;;;;;;;;;26.07;45.70;99316.84;41823511;28;19921;-82
2023/07/01 20:32:14;;;;;;;;;;;;;;;26.04;45.78;99302.06;41867510;28;19929;-78
2023/07/01 20:52:15;;;;;;;;;;;;;;;26.00;45.60;99300.75;41895606;28;19935;-82
2023/07/01 21:12:15;;;;;;;;;;;;;;;25.99;46.01;99307.91;41922648;28;19940;-80
2023/07/01 21:32:16;;;;;;;;;;;;;;;25.98;45.65;99308.91;41850602;28;19962;-81
2023/07/01 21:52:16;;;;;;;;;;;;;;;25.97;45.96;99301.94;41851431;28;19925;-80
2023/07/01 22:12:18;;;;;;;;;;;;;;;25.95;46.02;99317.22;41810461;28;19925;-80
2023/07/01 22:32:19;;;;;;;;;;;;;;;25.94;46.16;99320.03;41818671;28;19935;-79
2023/07/01 22:52:19;;;;;;;;;;;;;;;25.93;46.12;99311.28;41815554;28;19932;-80
2023/07/01 23:12:23;;;;;;;;;;;;;;;25.91;46.14;99307.16;41850281;28;20027;-81
2023/07/01 23:32:28;;;;;;;;;;;;;;;25.89;46.27;99305.50;41874307;28;19932;-82
2023/07/01 23:52:29;;;;;;;;;;;;;;;25.89;46.38;99313.44;41904540;28;19972;-80
